Time;durP1;ratioP1;P1;durP2;ratioP2;P2;SDS_P1;SDS_P2;PMS_P1;PMS_P2;Temp;Humidity;BMP_temperature;BMP_pressure;BME280_temperature;BME280_humidity;BME280_pressure;Samples;Min_cycle;Max_cycle;Signal;HPM_P1;HPM_P2
2022/07/26 00:03:48;;;;;;;4.25;3.20;;;22.80;1.00;;;;;;10492888;28;20195;-83
2022/07/26 00:09:27;;;;;;;7.47;3.88;;;22.70;99.90;;;;;;10506992;28;20225;-84
2022/07/26 00:14:48;;;;;;;5.68;3.45;;;22.50;99.90;;;;;;10485014;28;20262;-84
2022/07/26 00:20:10;;;;;;;4.82;3.65;;;22.40;1.00;;;;;;10484606;28;20244;-87
2022/07/26 00:25:32;;;;;;;4.72;3.47;;;22.30;1.00;;;;;;10530946;28;20202;-85
2022/07/26 00:30:54;;;;;;;5.70;3.92;;;22.30;99.90;;;;;;10506016;28;20199;-89
2022/07/26 00:36:15;;;;;;;6.05;3.83;;;22.20;1.00;;;;;;10519960;28;20280;-87
2022/07/26 00:41:37;;;;;;;4.55;3.40;;;22.10;1.00;;;;;;10534067;28;20191;-88
2022/07/26 00:46:59;;;;;;;4.53;3.42;;;22.10;1.00;;;;;;10519542;28;20306;-88
2022/07/26 00:52:20;;;;;;;5.22;3.65;;;22.00;99.90;;;;;;10519318;28;20219;-88
2022/07/26 00:57:43;;;;;;;3.60;3.30;;;22.00;95.70;;;;;;10505020;28;20195;-89
2022/07/26 01:03:05;;;;;;;4.25;3.75;;;22.00;96.40;;;;;;10504590;28;20199;-88
2022/07/26 01:08:26;;;;;;;5.05;3.35;;;22.00;96.30;;;;;;10504691;28;20581;-87
2022/07/26 01:13:49;;;;;;;4.20;3.13;;;22.10;96.50;;;;;;10503962;28;20269;-82
2022/07/26 01:19:11;;;;;;;4.30;3.33;;;22.20;96.70;;;;;;10519720;28;20187;-82
2022/07/26 01:24:32;;;;;;;3.65;3.17;;;22.20;96.70;;;;;;10469223;28;20196;-83
2022/07/26 01:29:54;;;;;;;6.13;3.58;;;22.10;96.80;;;;;;10517629;28;20270;-83
2022/07/26 01:35:15;;;;;;;4.35;3.58;;;22.10;97.60;;;;;;10497464;28;20271;-83
2022/07/26 01:40:37;;;;;;;5.35;3.90;;;22.10;97.20;;;;;;10485136;28;20226;-83
2022/07/26 01:45:58;;;;;;;5.18;4.05;;;22.00;97.80;;;;;;10470877;28;20245;-84
2022/07/26 01:51:19;;;;;;;5.10;3.88;;;21.90;98.20;;;;;;10470978;28;20233;-85
2022/07/26 01:56:42;;;;;;;4.07;3.50;;;21.90;98.00;;;;;;10506677;28;20344;-85
2022/07/26 02:02:03;;;;;;;4.95;3.55;;;21.80;98.60;;;;;;10511439;28;20206;-86
2022/07/26 02:07:36;;;;;;;5.03;3.65;;;21.80;99.40;;;;;;10525800;28;20241;-87
2022/07/26 02:12:58;;;;;;;4.30;3.90;;;21.70;99.90;;;;;;10510515;28;20306;-86
2022/07/26 02:18:19;;;;;;;4.88;3.38;;;21.70;99.90;;;;;;10483248;28;20192;-87
2022/07/26 02:23:41;;;;;;;6.93;3.25;;;21.70;99.10;;;;;;10517968;28;20205;-87
2022/07/26 02:29:02;;;;;;;4.28;3.50;;;21.70;98.90;;;;;;10538744;28;20248;-88
2022/07/26 02:34:24;;;;;;;5.93;3.28;;;21.70;98.70;;;;;;10482750;28;20227;-83
2022/07/26 02:39:46;;;;;;;5.78;3.55;;;21.60;97.80;;;;;;10488038;28;20366;-83
2022/07/26 02:45:07;;;;;;;7.10;3.58;;;21.50;98.70;;;;;;10461421;28;20199;-83
2022/07/26 02:50:29;;;;;;;4.72;4.00;;;21.60;99.90;;;;;;10509681;28;20249;-83
2022/07/26 02:55:50;;;;;;;7.30;4.05;;;21.50;99.90;;;;;;10507927;28;20297;-87
2022/07/26 03:01:12;;;;;;;8.70;4.93;;;21.50;99.90;;;;;;10565865;28;20187;-87
2022/07/26 03:06:36;;;;;;;4.97;4.47;;;21.50;1.00;;;;;;10536973;28;20263;-88
2022/07/26 03:11:57;;;;;;;7.63;4.75;;;21.30;1.00;;;;;;10550655;28;20279;-89
2022/07/26 03:17:19;;;;;;;7.65;4.70;;;21.20;1.00;;;;;;10517673;28;20194;-88
2022/07/26 03:22:40;;;;;;;6.05;5.47;;;21.10;20.20;;;;;;10508620;28;20199;-88
2022/07/26 03:28:02;;;;;;;5.85;5.25;;;20.90;42.00;;;;;;10522517;28;20205;-87
2022/07/26 03:33:23;;;;;;;9.68;5.85;;;20.80;84.70;;;;;;10507997;28;20223;-87
2022/07/26 03:38:44;;;;;;;6.15;5.55;;;20.80;99.90;;;;;;10508250;28;20187;-86
2022/07/26 03:44:06;;;;;;;9.50;5.82;;;20.70;99.90;;;;;;10507994;28;20199;-83
2022/07/26 03:49:28;;;;;;;6.72;5.65;;;20.80;99.90;;;;;;10508295;28;20252;-87
2022/07/26 03:54:49;;;;;;;8.20;6.32;;;20.70;99.90;;;;;;10524995;28;20289;-88
2022/07/26 04:00:11;;;;;;;8.80;6.35;;;20.70;99.90;;;;;;10548968;28;20392;-84
2022/07/26 04:05:32;;;;;;;13.75;6.63;;;20.70;99.90;;;;;;10534944;28;20208;-83
2022/07/26 04:10:54;;;;;;;8.82;6.28;;;20.60;99.90;;;;;;10534439;28;20213;-83
2022/07/26 04:16:15;;;;;;;12.38;6.45;;;20.50;99.90;;;;;;10499886;28;20223;-83
2022/07/26 04:21:37;;;;;;;9.18;6.13;;;20.40;99.90;;;;;;10488378;28;20266;-87
2022/07/26 04:26:58;;;;;;;7.80;5.75;;;20.40;99.90;;;;;;10464976;28;20364;-88
2022/07/26 04:32:20;;;;;;;6.88;5.75;;;20.30;99.90;;;;;;10507672;28;20248;-88
2022/07/26 04:37:42;;;;;;;5.53;4.32;;;20.30;99.90;;;;;;10520809;28;20217;-89
2022/07/26 04:43:03;;;;;;;6.63;4.63;;;20.30;99.90;;;;;;10520036;28;20294;-88
2022/07/26 04:48:24;;;;;;;7.95;4.93;;;20.20;99.90;;;;;;10505637;28;20191;-88
2022/07/26 04:53:46;;;;;;;6.07;4.05;;;20.20;99.90;;;;;;10519545;28;20521;-88
2022/07/26 04:59:07;;;;;;;6.60;4.13;;;20.10;99.90;;;;;;10559943;28;20190;-86
2022/07/26 05:04:29;;;;;;;5.25;3.47;;;20.00;99.90;;;;;;10533050;28;20210;-86
2022/07/26 05:09:50;;;;;;;3.70;2.85;;;19.90;99.90;;;;;;10532609;28;20194;-86
2022/07/26 05:15:13;;;;;;;5.43;2.90;;;19.80;99.90;;;;;;10531717;28;20437;-86
2022/07/26 05:20:35;;;;;;;5.95;3.35;;;19.60;99.90;;;;;;10518491;28;20274;-88
2022/07/26 05:25:56;;;;;;;3.38;2.80;;;19.50;99.90;;;;;;10491703;28;20200;-88
2022/07/26 05:31:18;;;;;;;3.58;2.60;;;19.40;99.90;;;;;;10491634;28;20221;-86
2022/07/26 05:36:39;;;;;;;2.80;2.55;;;19.30;99.90;;;;;;10491219;28;20295;-87
2022/07/26 05:42:00;;;;;;;3.75;2.33;;;19.40;99.90;;;;;;10477535;28;20211;-88
2022/07/26 05:47:22;;;;;;;3.28;2.70;;;19.30;99.90;;;;;;10507748;28;20206;-89
2022/07/26 05:52:43;;;;;;;3.85;3.00;;;19.30;99.90;;;;;;10504174;28;20483;-89
2022/07/26 05:58:05;;;;;;;3.03;2.33;;;19.30;99.90;;;;;;10535670;28;20190;-84
2022/07/26 06:03:26;;;;;;;4.60;2.67;;;19.30;99.90;;;;;;10559476;28;20197;-88
2022/07/26 06:08:47;;;;;;;4.10;2.60;;;19.40;99.90;;;;;;10531818;28;20226;-90
2022/07/26 06:14:09;;;;;;;3.60;2.40;;;19.50;99.90;;;;;;10515368;28;20239;-87
2022/07/26 06:19:31;;;;;;;5.00;2.63;;;19.50;99.90;;;;;;10504984;28;20191;-88
2022/07/26 06:24:53;;;;;;;4.15;2.65;;;19.60;99.90;;;;;;10506057;28;20195;-88
2022/07/26 06:30:14;;;;;;;8.65;2.85;;;19.60;99.90;;;;;;10540094;28;20532;-88
2022/07/26 06:35:38;;;;;;;5.53;2.55;;;19.50;99.90;;;;;;10502354;28;20228;-90
2022/07/26 06:40:59;;;;;;;3.03;2.30;;;19.60;99.90;;;;;;10483456;28;20254;-90
2022/07/26 06:46:21;;;;;;;3.67;2.53;;;19.70;99.90;;;;;;10509865;28;20270;-87
2022/07/26 06:51:46;;;;;;;7.53;3.00;;;19.70;99.90;;;;;;10497372;28;20191;-90
2022/07/26 06:57:07;;;;;;;3.28;2.45;;;19.70;99.90;;;;;;10533273;28;20225;-88
2022/07/26 07:02:28;;;;;;;2.78;2.20;;;19.80;99.90;;;;;;10551365;28;20213;-81
2022/07/26 07:07:50;;;;;;;8.18;2.55;;;20.00;99.90;;;;;;10537029;28;20198;-82
2022/07/26 07:13:11;;;;;;;3.13;2.10;;;20.00;99.90;;;;;;10526198;28;20236;-82
2022/07/26 07:18:33;;;;;;;3.10;2.10;;;20.00;99.90;;;;;;10408669;28;20225;-81
2022/07/26 07:23:54;;;;;;;5.22;3.08;;;20.00;99.90;;;;;;10405295;28;20188;-86
2022/07/26 07:29:18;;;;;;;5.78;2.28;;;20.00;99.90;;;;;;10431748;28;20427;-90
2022/07/26 07:34:40;;;;;;;6.57;3.00;;;20.10;99.90;;;;;;10394956;28;20517;-88
2022/07/26 07:40:05;;;;;;;4.60;2.63;;;20.30;99.90;;;;;;10394300;28;20428;-85
2022/07/26 07:45:27;;;;;;;3.75;2.63;;;20.40;94.50;;;;;;10396415;28;20208;-85
2022/07/26 07:50:48;;;;;;;5.68;2.88;;;20.40;55.60;;;;;;10421497;28;20226;-88
2022/07/26 07:56:10;;;;;;;6.05;3.10;;;20.40;40.20;;;;;;10434046;28;20230;-81
2022/07/26 08:01:31;;;;;;;4.55;2.10;;;20.60;2.00;;;;;;10419347;28;20196;-90
2022/07/26 08:06:53;;;;;;;8.50;3.42;;;21.00;1.00;;;;;;10419086;28;20231;-83
2022/07/26 08:12:16;;;;;;;12.25;3.08;;;21.10;99.90;;;;;;10395014;28;20249;-89
2022/07/26 08:17:37;;;;;;;4.60;2.88;;;21.00;1.00;;;;;;10427435;28;20561;-84
2022/07/26 08:22:59;;;;;;;5.10;2.40;;;21.30;1.00;;;;;;10404755;28;20204;-85
2022/07/26 08:28:20;;;;;;;5.47;2.75;;;22.40;1.00;;;;;;10417467;28;20530;-81
2022/07/26 08:33:51;;;;;;;6.75;2.20;;;22.40;1.00;;;;;;10405062;28;20224;-82
2022/07/26 08:39:12;;;;;;;3.92;2.20;;;22.70;1.00;;;;;;10417600;28;20197;-80
2022/07/26 08:44:33;;;;;;;5.18;1.88;;;23.60;1.00;;;;;;10403985;28;20387;-81
2022/07/26 08:49:55;;;;;;;4.25;1.90;;;24.20;99.90;;;;;;10393007;28;20271;-85
2022/07/26 08:55:18;;;;;;;5.93;1.98;;;24.70;1.00;;;;;;10398443;28;20236;-86
2022/07/26 09:00:44;;;;;;;3.55;1.65;;;24.20;1.00;;;;;;10416435;28;20205;-86
2022/07/26 09:06:14;;;;;;;6.25;1.80;;;24.70;1.00;;;;;;10427866;28;20207;-84
2022/07/26 09:11:36;;;;;;;6.35;1.65;;;25.70;99.90;;;;;;10413918;28;20236;-82
2022/07/26 09:16:58;;;;;;;20.67;1.73;;;25.90;99.90;;;;;;10400742;28;20561;-83
2022/07/26 09:22:20;;;;;;;3.78;1.70;;;26.00;47.00;;;;;;10402146;28;20224;-81
2022/07/26 09:27:41;;;;;;;4.90;2.35;;;25.50;39.80;;;;;;10416074;28;20517;-83
2022/07/26 09:33:06;;;;;;;1.50;1.20;;;25.30;31.30;;;;;;10416678;28;20202;-83
2022/07/26 09:38:42;;;;;;;9.20;1.85;;;25.10;19.20;;;;;;10429575;28;20192;-83
2022/07/26 09:44:05;;;;;;;4.72;1.20;;;25.90;1.00;;;;;;10394103;28;20203;-77
2022/07/26 09:49:29;;;;;;;3.10;1.17;;;26.20;17.40;;;;;;10376222;28;20288;-82
2022/07/26 09:54:52;;;;;;;6.20;1.42;;;26.80;5.30;;;;;;10382124;28;20232;-82
2022/07/26 10:00:14;;;;;;;4.38;1.58;;;27.00;1.00;;;;;;10383269;28;20290;-81
2022/07/26 10:05:36;;;;;;;2.13;0.98;;;27.40;1.00;;;;;;10400342;28;20236;-81
2022/07/26 10:11:19;;;;;;;3.85;1.30;;;27.10;7.70;;;;;;10429058;28;20262;-83
2022/07/26 10:16:40;;;;;;;3.78;1.80;;;26.50;5.90;;;;;;10404596;28;20237;-85
2022/07/26 10:22:21;;;;;;;1.95;1.45;;;27.30;8.90;;;;;;10408520;28;20518;-84
2022/07/26 10:27:44;;;;;;;4.15;1.40;;;27.60;13.70;;;;;;10409342;28;20492;-83
2022/07/26 10:33:11;;;;;;;3.90;0.90;;;27.40;18.10;;;;;;10422020;28;20262;-84
2022/07/26 10:38:33;;;;;;;3.53;1.42;;;26.80;19.20;;;;;;10435230;28;20213;-82
2022/07/26 10:44:14;;;;;;;4.10;1.20;;;26.90;18.90;;;;;;10421349;28;20275;-84
2022/07/26 10:49:39;;;;;;;2.10;0.90;;;26.80;13.60;;;;;;10408135;28;20254;-80
2022/07/26 10:55:03;;;;;;;1.90;1.30;;;27.20;13.60;;;;;;10421881;28;20232;-80
2022/07/26 11:00:25;;;;;;;3.10;1.40;;;27.00;14.70;;;;;;10425817;28;20377;-83
2022/07/26 11:05:47;;;;;;;2.53;1.38;;;26.70;17.30;;;;;;10410133;28;20204;-89
2022/07/26 11:11:08;;;;;;;3.70;1.65;;;26.60;12.50;;;;;;10422191;28;20243;-89
2022/07/26 11:16:43;;;;;;;5.75;1.70;;;26.60;10.80;;;;;;10420169;28;20220;-81
2022/07/26 11:22:04;;;;;;;4.50;1.30;;;26.40;5.50;;;;;;10419648;28;20196;-81
2022/07/26 11:27:26;;;;;;;3.53;1.33;;;26.00;11.40;;;;;;10440926;28;20200;-88
2022/07/26 11:32:52;;;;;;;3.45;1.40;;;25.90;17.60;;;;;;10422796;28;20273;-82
2022/07/26 11:38:14;;;;;;;3.90;2.78;;;26.30;18.60;;;;;;10417858;28;20254;-77
2022/07/26 11:43:37;;;;;;;1.83;1.45;;;26.50;16.60;;;;;;10428683;28;20384;-83
2022/07/26 11:48:59;;;;;;;4.47;1.17;;;25.90;19.90;;;;;;10379735;28;20280;-92
2022/07/26 11:54:23;;;;;;;2.38;1.38;;;25.60;21.50;;;;;;10378456;28;20312;-84
2022/07/26 11:59:47;;;;;;;4.50;1.20;;;25.30;24.80;;;;;;10432778;28;20280;-83
2022/07/26 12:05:26;;;;;;;4.75;1.90;;;25.20;25.80;;;;;;10432726;28;20211;-84
2022/07/26 12:10:53;;;;;;;4.82;1.17;;;25.20;32.80;;;;;;10433617;28;20323;-82
2022/07/26 12:16:39;;;;;;;3.58;1.38;;;25.10;34.80;;;;;;10439680;28;20235;-83
2022/07/26 12:22:09;;;;;;;5.07;1.23;;;25.30;36.60;;;;;;10419209;28;20216;-84
2022/07/26 12:27:32;;;;;;;2.65;1.13;;;26.10;24.20;;;;;;10418970;28;20200;-87
2022/07/26 12:33:00;;;;;;;4.22;1.08;;;26.10;19.20;;;;;;10432215;28;20237;-87
2022/07/26 12:38:42;;;;;;;4.63;1.10;;;25.60;21.90;;;;;;10417349;28;20542;-81
2022/07/26 12:44:05;;;;;;;2.10;1.25;;;25.20;26.40;;;;;;10431539;28;20561;-85
2022/07/26 12:49:26;;;;;;;1.83;1.08;;;24.90;29.10;;;;;;10436232;28;20224;-86
2022/07/26 12:54:50;;;;;;;3.13;1.15;;;25.20;32.80;;;;;;10425581;28;20219;-84
2022/07/26 13:00:13;;;;;;;2.92;1.20;;;25.20;27.90;;;;;;10499657;28;20214;-85
2022/07/26 13:05:34;;;;;;;4.75;1.65;;;25.20;26.70;;;;;;10444054;28;20394;-84
2022/07/26 13:10:56;;;;;;;2.20;1.10;;;25.00;30.70;;;;;;10457844;28;20195;-85
2022/07/26 13:16:20;;;;;;;2.33;1.40;;;24.70;32.60;;;;;;10460453;28;20247;-84
2022/07/26 13:21:42;;;;;;;4.50;1.15;;;24.40;34.40;;;;;;10458271;28;20356;-87
2022/07/26 13:27:06;;;;;;;2.35;1.30;;;24.40;40.60;;;;;;10491693;28;20204;-85
2022/07/26 13:32:27;;;;;;;2.97;1.05;;;24.10;39.80;;;;;;10425442;28;20424;-86
2022/07/26 13:37:49;;;;;;;6.55;1.83;;;24.00;41.40;;;;;;10453240;28;20235;-83
2022/07/26 13:43:11;;;;;;;2.65;1.50;;;24.00;44.90;;;;;;10439808;28;20226;-85
2022/07/26 13:48:32;;;;;;;1.65;1.15;;;24.30;41.70;;;;;;10439137;28;20201;-83
2022/07/26 13:53:54;;;;;;;4.57;1.50;;;24.60;38.10;;;;;;10452404;28;20236;-84
2022/07/26 13:59:16;;;;;;;5.32;1.20;;;24.80;38.70;;;;;;10518035;28;20208;-93
2022/07/26 14:04:37;;;;;;;2.20;1.27;;;24.90;38.50;;;;;;10497839;28;20220;-89
2022/07/26 14:09:59;;;;;;;3.35;1.50;;;24.70;40.30;;;;;;10496032;28;20552;-87
2022/07/26 14:15:21;;;;;;;1.85;1.40;;;24.40;41.60;;;;;;10464391;28;20270;-86
2022/07/26 14:20:43;;;;;;;2.33;1.38;;;24.60;45.10;;;;;;10465480;28;20271;-86
2022/07/26 14:26:05;;;;;;;3.83;1.30;;;25.10;38.70;;;;;;10451230;28;20203;-87
2022/07/26 14:31:27;;;;;;;2.42;1.45;;;25.30;31.10;;;;;;10468960;28;20202;-87
2022/07/26 14:36:48;;;;;;;3.10;0.90;;;25.20;31.50;;;;;;10501675;28;20219;-87
2022/07/26 14:42:12;;;;;;;7.68;1.88;;;25.30;31.40;;;;;;10477510;28;20222;-86
2022/07/26 14:47:34;;;;;;;3.28;1.45;;;25.30;7.00;;;;;;10450591;28;20218;-87
2022/07/26 14:52:55;;;;;;;2.42;1.33;;;25.10;12.80;;;;;;10450552;28;20258;-87
2022/07/26 14:58:17;;;;;;;3.45;1.10;;;25.10;1.00;;;;;;10449591;28;20235;-86
2022/07/26 15:03:40;;;;;;;2.78;1.10;;;25.00;1.00;;;;;;10464810;28;20196;-84
2022/07/26 15:09:01;;;;;;;3.53;1.53;;;24.90;1.00;;;;;;10485380;28;20493;-85
2022/07/26 15:14:23;;;;;;;4.68;1.20;;;24.90;1.00;;;;;;10451230;28;20251;-85
2022/07/26 15:19:46;;;;;;;3.50;1.20;;;24.80;1.00;;;;;;10466280;28;20198;-85
2022/07/26 15:25:07;;;;;;;4.88;1.30;;;24.50;1.00;;;;;;10450659;28;20279;-84
2022/07/26 15:30:30;;;;;;;2.72;1.58;;;24.20;1.00;;;;;;10451514;28;20215;-84
2022/07/26 15:35:54;;;;;;;3.28;1.45;;;24.00;1.00;;;;;;10466136;28;20415;-84
2022/07/26 15:41:15;;;;;;;2.78;1.33;;;23.80;1.00;;;;;;10480632;28;20418;-85
2022/07/26 15:46:37;;;;;;;2.63;1.38;;;23.80;1.00;;;;;;10451779;28;20503;-85
2022/07/26 15:51:59;;;;;;;7.40;1.60;;;23.80;1.00;;;;;;10479136;28;20222;-85
2022/07/26 15:57:21;;;;;;;4.72;1.63;;;23.80;1.00;;;;;;10499239;28;20216;-84
2022/07/26 16:02:43;;;;;;;3.40;1.58;;;23.90;1.00;;;;;;10437845;28;20193;-86
2022/07/26 16:08:05;;;;;;;3.38;1.45;;;23.80;1.00;;;;;;10424469;28;20200;-85
2022/07/26 16:13:26;;;;;;;5.68;1.05;;;23.50;1.00;;;;;;10413136;28;20219;-85
2022/07/26 16:18:48;;;;;;;4.15;1.00;;;23.20;1.00;;;;;;10411315;28;20275;-85
2022/07/26 16:24:09;;;;;;;47.20;3.72;;;22.90;1.00;;;;;;10449442;28;20287;-85
2022/07/26 16:29:30;;;;;;;3.40;1.00;;;22.60;99.90;;;;;;10450260;28;20216;-84
2022/07/26 16:34:52;;;;;;;2.80;1.10;;;22.40;1.00;;;;;;10464490;28;20219;-85
2022/07/26 16:40:14;;;;;;;3.40;1.17;;;22.20;1.00;;;;;;10478245;28;20214;-85
2022/07/26 16:45:35;;;;;;;1.95;1.15;;;22.00;1.00;;;;;;10450269;28;20191;-85
2022/07/26 16:50:56;;;;;;;2.65;0.98;;;21.80;1.00;;;;;;10479328;28;20195;-85
2022/07/26 16:56:17;;;;;;;4.05;1.00;;;21.80;1.00;;;;;;10479737;28;20215;-86
2022/07/26 17:01:39;;;;;;;3.20;1.10;;;21.80;1.00;;;;;;10492179;28;20199;-85
2022/07/26 17:07:00;;;;;;;2.35;1.00;;;21.90;1.00;;;;;;10449572;28;20230;-85
2022/07/26 17:12:41;;;;;;;2.97;0.93;;;21.90;99.90;;;;;;10451990;28;20235;-85
2022/07/26 17:18:04;;;;;;;4.10;1.05;;;21.70;99.90;;;;;;10456614;28;20251;-84
2022/07/26 17:23:26;;;;;;;1.40;0.98;;;21.50;1.00;;;;;;10463392;28;20190;-84
2022/07/26 17:28:47;;;;;;;2.25;0.95;;;21.30;1.00;;;;;;10495815;28;20494;-85
2022/07/26 17:34:08;;;;;;;4.30;0.98;;;21.30;1.00;;;;;;10449076;28;20241;-85
2022/07/26 17:39:30;;;;;;;1.88;0.80;;;21.10;1.00;;;;;;10462419;28;20207;-85
2022/07/26 17:44:52;;;;;;;1.83;0.90;;;21.00;1.00;;;;;;10448845;28;20222;-84
2022/07/26 17:50:14;;;;;;;3.85;0.90;;;20.90;1.00;;;;;;10476488;28;20271;-84
2022/07/26 17:55:57;;;;;;;3.42;1.27;;;20.80;1.00;;;;;;10475298;28;20601;-84
2022/07/26 18:01:18;;;;;;;3.88;1.25;;;20.60;1.00;;;;;;10448665;28;20192;-85
2022/07/26 18:06:40;;;;;;;1.92;0.70;;;20.60;1.00;;;;;;10476588;28;20229;-85
2022/07/26 18:12:01;;;;;;;1.45;0.68;;;20.60;1.00;;;;;;10461665;28;20234;-84
2022/07/26 18:17:22;;;;;;;1.85;1.10;;;20.40;1.00;;;;;;10441119;28;20475;-84
2022/07/26 18:22:43;;;;;;;1.65;1.20;;;20.40;1.00;;;;;;10444897;28;20388;-85
2022/07/26 18:28:05;;;;;;;1.00;0.70;;;20.30;1.00;;;;;;10475950;28;20195;-85
2022/07/26 18:33:27;;;;;;;3.40;0.98;;;20.20;1.00;;;;;;10455684;28;20204;-84
2022/07/26 18:38:50;;;;;;;2.33;0.80;;;20.00;1.00;;;;;;10482924;28;20228;-85
2022/07/26 18:44:11;;;;;;;2.30;0.80;;;19.80;1.00;;;;;;10455026;28;20219;-84
2022/07/26 18:49:33;;;;;;;3.13;0.82;;;19.80;99.90;;;;;;10468679;28;20195;-84
2022/07/26 18:54:55;;;;;;;3.80;1.27;;;19.70;99.90;;;;;;10473053;28;20297;-84
2022/07/26 19:00:19;;;;;;;1.15;0.60;;;19.60;82.60;;;;;;10459861;28;20192;-85
2022/07/26 19:05:40;;;;;;;3.47;1.15;;;19.50;1.00;;;;;;10468380;28;20191;-85
2022/07/26 19:11:01;;;;;;;4.45;1.40;;;19.40;1.00;;;;;;10467889;28;20420;-85
2022/07/26 19:16:23;;;;;;;1.25;0.80;;;19.30;1.00;;;;;;10452208;28;20231;-84
2022/07/26 19:21:47;;;;;;;3.45;1.02;;;19.20;99.90;;;;;;10425916;28;20192;-85
2022/07/26 19:27:08;;;;;;;2.83;1.13;;;19.10;99.90;;;;;;10425663;28;20228;-84
2022/07/26 19:32:29;;;;;;;3.72;1.60;;;18.90;99.90;;;;;;10425702;28;20202;-84
2022/07/26 19:37:53;;;;;;;3.38;1.40;;;18.80;1.00;;;;;;10425247;28;20255;-84
2022/07/26 19:43:15;;;;;;;3.13;1.30;;;18.70;1.00;;;;;;10425245;28;20196;-85
2022/07/26 19:48:36;;;;;;;2.50;1.30;;;18.70;1.00;;;;;;10467166;28;20191;-85
2022/07/26 19:53:58;;;;;;;2.88;1.17;;;18.60;1.00;;;;;;10466281;28;20202;-85
2022/07/26 19:59:19;;;;;;;3.00;0.95;;;18.60;93.90;;;;;;10507366;28;20269;-84
2022/07/26 20:04:44;;;;;;;3.28;1.00;;;18.50;99.90;;;;;;10506910;28;20206;-85
2022/07/26 20:10:07;;;;;;;5.53;1.23;;;18.40;99.90;;;;;;10493012;28;20195;-85
2022/07/26 20:15:28;;;;;;;2.50;1.25;;;18.30;99.90;;;;;;10502909;28;20281;-85
2022/07/26 20:20:54;;;;;;;1.55;0.93;;;18.30;99.90;;;;;;10474254;28;20195;-84
2022/07/26 20:26:17;;;;;;;2.08;1.00;;;18.20;1.00;;;;;;10451255;28;20235;-84
2022/07/26 20:31:38;;;;;;;6.60;1.05;;;18.10;1.00;;;;;;10465050;28;20430;-84
2022/07/26 20:37:00;;;;;;;3.38;1.27;;;18.00;1.00;;;;;;10464686;28;20219;-84
2022/07/26 20:42:21;;;;;;;2.45;1.15;;;17.90;1.00;;;;;;10464080;28;20195;-84
2022/07/26 20:47:43;;;;;;;2.25;1.10;;;17.90;1.00;;;;;;10463636;28;20422;-84
2022/07/26 20:53:04;;;;;;;1.95;0.93;;;17.80;1.00;;;;;;10464001;28;20378;-85
2022/07/26 20:58:26;;;;;;;1.65;1.08;;;17.80;1.00;;;;;;10467363;28;20223;-85
2022/07/26 21:03:47;;;;;;;1.65;0.80;;;17.70;7.20;;;;;;10496888;28;20434;-85
2022/07/26 21:09:08;;;;;;;2.28;1.00;;;17.50;50.50;;;;;;10463686;28;20269;-84
2022/07/26 21:14:30;;;;;;;4.45;1.13;;;17.60;91.30;;;;;;10462685;28;20227;-84
2022/07/26 21:19:52;;;;;;;2.90;0.90;;;17.50;99.90;;;;;;10434765;28;20205;-85
2022/07/26 21:25:13;;;;;;;2.53;1.10;;;17.50;99.90;;;;;;10455195;28;20271;-85
2022/07/26 21:30:36;;;;;;;2.85;1.00;;;;;;;;;;10452639;28;20204;-85
2022/07/26 21:35:58;;;;;;;2.80;1.10;;;;;;;;;;10449390;28;20224;-85
2022/07/26 21:41:19;;;;;;;4.00;1.20;;;17.40;99.90;;;;;;10450456;28;20443;-85
2022/07/26 21:46:40;;;;;;;3.70;1.20;;;17.30;99.90;;;;;;10462864;28;20195;-84
2022/07/26 21:52:02;;;;;;;4.47;1.40;;;;;;;;;;10482383;28;20494;-84
2022/07/26 21:57:24;;;;;;;7.25;1.40;;;;;;;;;;10510076;28;20230;-84
2022/07/26 22:02:46;;;;;;;4.45;1.40;;;;;;;;;;10512126;28;20282;-84
2022/07/26 22:08:09;;;;;;;3.60;1.25;;;;;;;;;;10511695;28;20206;-84
2022/07/26 22:13:31;;;;;;;4.90;1.65;;;;;;;;;;10491624;28;20238;-85
2022/07/26 22:18:53;;;;;;;4.35;1.42;;;;;;;;;;10469439;28;20227;-84
2022/07/26 22:24:15;;;;;;;3.05;1.15;;;;;;;;;;10483759;28;20264;-84
2022/07/26 22:29:38;;;;;;;4.32;1.38;;;;;;;;;;10469361;28;20206;-84
2022/07/26 22:35:00;;;;;;;2.33;0.90;;;;;;;;;;10469253;28;20221;-85
2022/07/26 22:40:22;;;;;;;3.80;1.27;;;;;;;;;;10483155;28;20509;-84
2022/07/26 22:45:44;;;;;;;3.88;1.27;;;;;;;;;;10482743;28;20203;-84
2022/07/26 22:51:06;;;;;;;2.22;0.88;;;;;;;;;;10483179;28;20484;-84
2022/07/26 22:56:28;;;;;;;4.32;1.58;;;;;;;;;;10472065;28;20412;-84
2022/07/26 23:01:50;;;;;;;7.80;1.60;;;;;;;;;;10509213;28;20194;-84
2022/07/26 23:07:11;;;;;;;2.85;1.23;;;;;;;;;;10526496;28;20566;-84
2022/07/26 23:12:33;;;;;;;5.68;1.63;;;;;;;;;;10495119;28;20253;-84
2022/07/26 23:17:55;;;;;;;3.75;1.13;;;;;;;;;;10455754;28;20303;-84
2022/07/26 23:23:16;;;;;;;3.88;1.67;;;;;;;;;;10482550;28;20381;-84
2022/07/26 23:28:38;;;;;;;3.45;1.50;;;;;;;;;;10481275;28;20196;-85
2022/07/26 23:34:00;;;;;;;3.80;1.60;;;;;;;;;;10466868;28;20194;-84
2022/07/26 23:39:21;;;;;;;3.17;1.42;;;;;;;;;;10481030;28;20236;-84
2022/07/26 23:44:42;;;;;;;3.88;1.15;;;15.90;1.00;;;;;;10480058;28;20198;-84
2022/07/26 23:50:04;;;;;;;2.90;1.10;;;16.00;1.00;;;;;;10452667;28;20203;-84
2022/07/26 23:55:26;;;;;;;3.72;1.35;;;15.70;1.00;;;;;;10461305;28;20217;-85
